createdAt,value
2023-03-04T00:02:07.364Z,31.02
2023-03-04T00:04:34.061Z,31.42
2023-03-04T00:07:00.741Z,33.55
2023-03-04T00:09:27.407Z,31.52
2023-03-04T00:11:54.116Z,41.35
2023-03-04T00:14:21.037Z,33.78
2023-03-04T00:16:49.328Z,40.92
2023-03-04T00:19:15.966Z,35.20
2023-03-04T00:21:42.685Z,31.67
2023-03-04T00:24:09.274Z,31.98
2023-03-04T00:26:35.952Z,28.38
2023-03-04T00:29:02.576Z,31.65
2023-03-04T00:31:29.204Z,32.33
2023-03-04T00:33:55.746Z,33.92
2023-03-04T00:36:22.432Z,32.35
2023-03-04T00:38:49.042Z,36.05
2023-03-04T00:41:15.790Z,30.77
2023-03-04T00:43:42.401Z,33.13
2023-03-04T00:46:09.186Z,31.45
2023-03-04T00:48:35.859Z,32.67
2023-03-04T00:51:02.503Z,32.35
2023-03-04T00:53:29.173Z,33.45
2023-03-04T00:55:55.817Z,35.78
2023-03-04T00:58:22.626Z,33.88
2023-03-04T01:00:49.297Z,34.38
2023-03-04T01:03:15.982Z,32.08
2023-03-04T01:05:42.633Z,34.17
2023-03-04T01:08:09.291Z,38.28
2023-03-04T01:10:36.179Z,32.65
2023-03-04T01:13:02.791Z,33.95
2023-03-04T01:15:29.775Z,32.55
2023-03-04T01:17:56.613Z,33.08
2023-03-04T01:20:23.302Z,33.80
2023-03-04T01:22:49.937Z,33.42
2023-03-04T01:25:16.602Z,31.80
2023-03-04T01:27:43.266Z,33.25
2023-03-04T01:30:10.712Z,34.90
2023-03-04T01:32:37.419Z,33.05
2023-03-04T01:35:04.312Z,34.30
2023-03-04T01:37:30.887Z,34.20
2023-03-04T01:39:57.501Z,34.80
2023-03-04T01:42:26.528Z,33.92
2023-03-04T01:44:53.561Z,33.40
2023-03-04T01:47:23.707Z,35.38
2023-03-04T01:49:54.023Z,34.08
2023-03-04T01:52:20.872Z,37.10
2023-03-04T01:54:48.470Z,34.67
2023-03-04T01:57:20.236Z,35.33
2023-03-04T01:59:47.940Z,40.08
2023-03-04T02:02:14.810Z,34.97
2023-03-04T02:04:42.390Z,33.50
2023-03-04T02:07:09.146Z,34.92
2023-03-04T02:09:36.480Z,33.80
2023-03-04T02:12:03.127Z,35.15
2023-03-04T02:14:29.766Z,33.47
2023-03-04T02:16:56.454Z,34.17
2023-03-04T02:19:37.771Z,34.88
2023-03-04T02:22:04.537Z,36.22
2023-03-04T02:24:53.474Z,37.67
2023-03-04T02:27:22.036Z,34.05
2023-03-04T02:29:48.870Z,32.03
2023-03-04T02:32:16.628Z,35.33
2023-03-04T02:34:48.212Z,33.33
2023-03-04T02:37:15.312Z,32.20
2023-03-04T02:39:43.782Z,32.45
2023-03-04T02:42:10.946Z,34.55
2023-03-04T02:44:39.675Z,35.85
2023-03-04T02:47:09.606Z,33.17
2023-03-04T02:49:37.783Z,42.97
2023-03-04T02:52:19.212Z,45.03
2023-03-04T02:54:46.071Z,35.38
2023-03-04T02:57:14.056Z,36.05
2023-03-04T02:59:41.260Z,36.60
2023-03-04T03:02:08.660Z,33.75
2023-03-04T03:04:37.224Z,36.67
2023-03-04T03:07:04.366Z,33.17
2023-03-04T03:09:31.041Z,28.30
2023-03-04T03:11:57.723Z,25.15
2023-03-04T03:14:24.360Z,25.58
2023-03-04T03:16:50.940Z,27.92
2023-03-04T03:19:17.561Z,26.67
2023-03-04T03:21:44.382Z,27.23
2023-03-04T03:24:11.008Z,25.05
2023-03-04T03:26:37.689Z,26.98
2023-03-04T03:29:04.312Z,23.85
2023-03-04T03:31:31.080Z,25.20
2023-03-04T03:33:57.722Z,28.10
2023-03-04T03:36:25.040Z,23.45
2023-03-04T03:38:51.611Z,29.02
2023-03-04T03:41:18.210Z,24.92
2023-03-04T03:43:44.890Z,24.15
2023-03-04T03:46:11.616Z,26.77
2023-03-04T03:48:38.226Z,21.75
2023-03-04T03:51:05.121Z,21.80
2023-03-04T03:53:31.746Z,26.00
2023-03-04T03:55:59.253Z,23.90
2023-03-04T03:58:27.334Z,20.38
2023-03-04T04:00:55.835Z,21.40
2023-03-04T04:03:24.002Z,24.17
2023-03-04T04:05:50.583Z,21.98
2023-03-04T04:08:20.052Z,23.90
2023-03-04T04:10:46.774Z,21.52
2023-03-04T04:13:13.701Z,21.58
2023-03-04T04:15:40.497Z,23.20
2023-03-04T04:18:07.832Z,19.58
2023-03-04T04:20:35.111Z,23.10
2023-03-04T04:23:02.336Z,22.85
2023-03-04T04:25:29.153Z,16.60
2023-03-04T04:27:55.987Z,16.98
2023-03-04T04:30:22.663Z,19.25
2023-03-04T04:32:49.250Z,15.60
2023-03-04T04:35:16.052Z,17.73
2023-03-04T04:37:42.653Z,17.33
2023-03-04T04:40:10.109Z,22.48
2023-03-04T04:42:36.742Z,21.30
2023-03-04T04:45:03.904Z,16.88
2023-03-04T04:47:30.661Z,19.20
2023-03-04T04:49:57.236Z,18.20
2023-03-04T04:52:23.914Z,19.25
2023-03-04T04:54:50.582Z,18.55
2023-03-04T04:57:17.204Z,17.73
2023-03-04T04:59:43.782Z,20.17
2023-03-04T05:02:10.378Z,21.60
2023-03-04T05:04:37.005Z,24.02
2023-03-04T05:07:03.995Z,18.15
2023-03-04T05:09:30.952Z,22.00
2023-03-04T05:11:57.679Z,17.15
2023-03-04T05:14:24.558Z,20.40
2023-03-04T05:16:53.125Z,19.25
2023-03-04T05:19:21.060Z,21.30
2023-03-04T05:21:47.937Z,17.70
2023-03-04T05:24:14.622Z,24.13
2023-03-04T05:26:41.498Z,18.38
2023-03-04T05:29:08.759Z,22.23
2023-03-04T05:31:35.468Z,16.17
2023-03-04T05:34:02.242Z,23.23
2023-03-04T05:36:29.040Z,20.65
2023-03-04T05:38:55.776Z,18.33
2023-03-04T05:41:23.068Z,18.42
2023-03-04T05:43:50.414Z,20.67
2023-03-04T05:46:19.027Z,24.70
2023-03-04T05:48:45.747Z,18.17
2023-03-04T05:51:12.354Z,19.25
2023-03-04T05:53:40.436Z,16.88
2023-03-04T05:56:15.449Z,14.60
2023-03-04T05:58:43.157Z,20.23
2023-03-04T06:01:10.265Z,22.23
2023-03-04T06:03:37.255Z,22.00
2023-03-04T06:06:04.939Z,17.45
2023-03-04T06:08:31.878Z,17.10
2023-03-04T06:10:59.328Z,13.30
2023-03-04T06:13:26.436Z,12.60
2023-03-04T06:15:57.804Z,13.70
2023-03-04T06:18:26.059Z,14.90
2023-03-04T06:20:57.745Z,18.25
2023-03-04T06:23:24.471Z,21.92
2023-03-04T06:25:55.094Z,14.68
2023-03-04T06:28:22.010Z,15.73
2023-03-04T06:30:48.669Z,16.52
2023-03-04T06:33:15.671Z,15.48
2023-03-04T06:35:42.390Z,16.60
2023-03-04T06:38:09.042Z,20.85
2023-03-04T06:40:35.645Z,14.73
2023-03-04T06:43:03.228Z,16.33
2023-03-04T06:45:29.984Z,12.80
2023-03-04T06:47:56.840Z,19.45
2023-03-04T06:50:23.528Z,15.82
2023-03-04T06:52:50.199Z,11.73
2023-03-04T06:55:16.878Z,12.10
2023-03-04T06:57:43.502Z,19.77
2023-03-04T07:00:11.189Z,13.07
2023-03-04T07:02:37.836Z,12.63
2023-03-04T07:05:05.370Z,11.73
2023-03-04T07:07:32.554Z,14.23
2023-03-04T07:09:59.395Z,16.02
2023-03-04T07:12:26.180Z,13.15
2023-03-04T07:14:53.459Z,15.88
2023-03-04T07:17:20.203Z,14.23
2023-03-04T07:19:46.822Z,11.10
2023-03-04T07:22:13.439Z,17.13
2023-03-04T07:24:40.118Z,14.93
2023-03-04T07:27:06.793Z,15.43
2023-03-04T07:29:33.556Z,16.25
2023-03-04T07:32:00.307Z,16.70
2023-03-04T07:34:27.048Z,20.13
2023-03-04T07:36:54.208Z,15.00
2023-03-04T07:39:21.969Z,9.45
2023-03-04T07:41:48.657Z,10.50
2023-03-04T07:44:15.363Z,16.13
2023-03-04T07:46:42.503Z,8.90
2023-03-04T07:49:09.248Z,8.93
2023-03-04T07:51:36.106Z,10.55
2023-03-04T07:54:03.080Z,10.80
2023-03-04T07:56:32.300Z,7.60
2023-03-04T07:58:59.947Z,15.70
2023-03-04T08:01:30.144Z,13.45
2023-03-04T08:03:57.685Z,7.75
2023-03-04T08:06:26.952Z,11.40
2023-03-04T08:09:02.480Z,14.02
2023-03-04T08:11:31.409Z,14.10
2023-03-04T08:13:58.730Z,11.40
2023-03-04T08:16:26.109Z,12.88
2023-03-04T08:18:56.172Z,7.65
2023-03-04T08:21:23.818Z,11.40
2023-03-04T08:23:50.745Z,10.30
2023-03-04T08:26:29.406Z,9.70
2023-03-04T08:28:57.852Z,11.00
2023-03-04T08:31:24.895Z,13.45
2023-03-04T08:33:53.091Z,10.52
2023-03-04T08:36:20.859Z,13.05
2023-03-04T08:38:47.539Z,9.70
2023-03-04T08:41:15.578Z,11.50
2023-03-04T08:43:42.512Z,8.52
2023-03-04T08:46:09.299Z,7.18
2023-03-04T08:48:37.421Z,6.95
2023-03-04T08:51:09.160Z,9.95
2023-03-04T08:53:35.919Z,10.05
2023-03-04T08:56:02.580Z,10.77
2023-03-04T08:58:29.401Z,10.95
2023-03-04T09:00:56.038Z,6.07
2023-03-04T09:03:22.755Z,6.85
2023-03-04T09:05:49.555Z,5.13
2023-03-04T09:08:16.305Z,7.47
2023-03-04T09:10:43.675Z,9.18
2023-03-04T09:13:11.740Z,4.32
2023-03-04T09:15:39.904Z,8.90
2023-03-04T09:18:06.913Z,9.88
2023-03-04T09:20:33.769Z,9.38
2023-03-04T09:23:00.383Z,9.40
2023-03-04T09:25:27.463Z,10.38
2023-03-04T09:27:54.104Z,6.13
2023-03-04T09:30:21.276Z,5.88
2023-03-04T09:32:47.993Z,10.27
2023-03-04T09:35:14.761Z,8.32
2023-03-04T09:37:41.883Z,9.13
2023-03-04T09:40:10.130Z,5.88
2023-03-04T09:42:47.813Z,8.75
2023-03-04T09:45:21.581Z,13.65
2023-03-04T09:47:50.698Z,9.27
2023-03-04T09:50:18.332Z,5.15
2023-03-04T09:53:20.403Z,10.27
2023-03-04T09:55:51.192Z,4.18
2023-03-04T09:58:43.513Z,7.55
2023-03-04T10:01:35.463Z,7.40
2023-03-04T10:04:10.818Z,7.40
2023-03-04T10:06:38.170Z,7.53
2023-03-04T10:09:10.013Z,9.27
2023-03-04T10:11:49.717Z,6.00
2023-03-04T10:14:33.140Z,8.55
2023-03-04T10:17:09.587Z,9.98
2023-03-04T10:19:53.240Z,7.47
2023-03-04T10:22:26.513Z,4.93
2023-03-04T10:24:58.633Z,9.60
2023-03-04T10:27:25.882Z,4.75
2023-03-04T10:29:52.970Z,6.05
2023-03-04T10:32:20.815Z,8.18
2023-03-04T10:34:47.970Z,8.88
2023-03-04T10:37:14.548Z,7.03
2023-03-04T10:39:44.113Z,8.38
2023-03-04T10:42:38.123Z,6.30
2023-03-04T10:45:06.675Z,6.70
2023-03-04T10:47:34.760Z,7.95
2023-03-04T10:50:04.134Z,5.05
2023-03-04T10:52:33.195Z,8.90
2023-03-04T10:55:03.297Z,5.70
2023-03-04T10:57:38.494Z,6.43
2023-03-04T11:00:37.876Z,6.32
2023-03-04T11:03:31.930Z,6.25
2023-03-04T11:06:29.595Z,9.20
2023-03-04T11:08:59.148Z,9.80
2023-03-04T11:11:34.870Z,7.68
2023-03-04T11:14:06.478Z,6.60
2023-03-04T11:16:35.026Z,17.10
2023-03-04T11:19:11.322Z,11.45
2023-03-04T11:21:41.028Z,5.38
2023-03-04T11:24:27.491Z,11.75
2023-03-04T11:27:04.142Z,5.47
2023-03-04T11:29:38.999Z,3.65
2023-03-04T11:32:12.336Z,8.07
2023-03-04T11:34:54.904Z,5.90
2023-03-04T11:37:26.991Z,7.80
2023-03-04T11:40:25.836Z,4.85
2023-03-04T11:42:59.955Z,7.78
2023-03-04T11:45:50.585Z,6.65
2023-03-04T11:48:24.752Z,5.97
2023-03-04T11:53:32.248Z,3.90
2023-03-04T11:56:25.075Z,3.45
2023-03-04T11:59:22.384Z,4.65
2023-03-04T12:02:14.596Z,1.98
2023-03-04T12:04:59.380Z,2.90
2023-03-04T12:08:00.249Z,3.45
2023-03-04T12:10:31.874Z,3.38
2023-03-04T12:13:36.615Z,1.73
2023-03-04T12:16:16.206Z,3.95
2023-03-04T12:19:04.943Z,2.60
2023-03-04T12:22:10.018Z,7.15
2023-03-04T12:27:26.360Z,2.92
2023-03-04T12:30:06.563Z,3.53
2023-03-04T12:33:19.040Z,4.00
2023-03-04T12:36:04.701Z,3.08
2023-03-04T12:39:14.511Z,2.95
2023-03-04T12:42:17.100Z,1.95
2023-03-04T12:45:07.495Z,2.38
2023-03-04T12:47:47.227Z,2.35
2023-03-04T12:50:54.423Z,2.30
2023-03-04T12:53:50.830Z,1.45
2023-03-04T12:56:25.636Z,1.58
2023-03-04T12:58:53.207Z,2.55
2023-03-04T13:01:37.273Z,3.70
2023-03-04T13:04:09.598Z,3.40
2023-03-04T13:07:14.768Z,2.22
2023-03-04T13:09:58.481Z,2.72
2023-03-04T13:12:25.674Z,4.70
2023-03-04T13:15:32.578Z,1.88
2023-03-04T13:18:03.214Z,2.35
2023-03-04T13:20:36.393Z,2.97
2023-03-04T13:23:22.448Z,1.70
2023-03-04T13:26:19.099Z,2.38
2023-03-04T13:28:45.850Z,1.75
2023-03-04T13:31:22.381Z,1.45
2023-03-04T13:33:53.389Z,2.03
2023-03-04T13:36:31.579Z,1.50
2023-03-04T13:39:14.896Z,1.20
2023-03-04T13:41:49.043Z,1.10
2023-03-04T13:44:36.341Z,1.42
2023-03-04T13:47:34.908Z,2.05
2023-03-04T13:50:46.936Z,1.27
2023-03-04T13:53:37.865Z,1.60
2023-03-04T13:56:39.074Z,1.70
2023-03-04T13:59:39.440Z,1.80
2023-03-04T14:02:23.003Z,0.82
2023-03-04T14:05:00.964Z,5.05
2023-03-04T14:07:31.578Z,1.10
2023-03-04T14:10:00.823Z,1.48
2023-03-04T14:12:36.977Z,1.13
2023-03-04T14:15:06.739Z,1.50
2023-03-04T14:17:38.910Z,1.67
2023-03-04T14:20:24.423Z,0.88
2023-03-04T14:22:51.471Z,2.63
2023-03-04T14:25:38.396Z,1.00
2023-03-04T14:28:19.597Z,3.50
2023-03-04T14:30:54.064Z,2.72
2023-03-04T14:33:29.256Z,4.95
2023-03-04T14:35:58.917Z,1.35
2023-03-04T14:38:31.618Z,1.73
2023-03-04T14:41:12.432Z,1.45
2023-03-04T14:44:03.890Z,1.88
2023-03-04T14:46:35.013Z,1.75
2023-03-04T14:49:02.356Z,1.67
2023-03-04T14:51:38.877Z,1.40
2023-03-04T14:54:05.636Z,2.30
2023-03-04T14:56:35.191Z,1.85
2023-03-04T14:59:01.916Z,3.33
2023-03-04T15:01:34.999Z,3.90
2023-03-04T15:04:11.350Z,2.08
2023-03-04T15:06:40.563Z,3.30
2023-03-04T15:09:27.500Z,3.65
2023-03-04T15:12:07.544Z,5.22
2023-03-04T15:14:59.395Z,3.30
2023-03-04T15:17:37.754Z,2.45
2023-03-04T15:20:16.449Z,3.63
2023-03-04T15:22:59.351Z,2.17
2023-03-04T15:25:26.085Z,3.58
2023-03-04T15:27:54.302Z,1.50
2023-03-04T15:30:27.719Z,1.92
2023-03-04T15:32:56.055Z,2.33
2023-03-04T15:35:23.535Z,3.17
2023-03-04T15:37:52.735Z,2.38
2023-03-04T15:40:33.961Z,2.92
2023-03-04T15:43:02.396Z,3.45
2023-03-04T15:45:36.201Z,3.67
2023-03-04T15:48:08.047Z,5.93
2023-03-04T15:50:36.941Z,3.60
2023-03-04T15:53:08.189Z,4.97
2023-03-04T15:55:35.511Z,3.90
2023-03-04T15:58:04.260Z,2.97
2023-03-04T16:00:32.246Z,4.97
2023-03-04T16:02:58.911Z,4.20
2023-03-04T16:05:26.092Z,2.78
2023-03-04T16:07:52.873Z,5.80
2023-03-04T16:10:25.047Z,4.93
2023-03-04T16:12:53.404Z,7.45
2023-03-04T16:15:22.542Z,5.40
2023-03-04T16:17:49.412Z,5.05
2023-03-04T16:20:21.895Z,6.43
2023-03-04T16:22:51.030Z,5.95
2023-03-04T16:25:18.956Z,6.07
2023-03-04T16:27:45.978Z,5.22
2023-03-04T16:30:16.348Z,8.52
2023-03-04T16:32:43.458Z,6.35
2023-03-04T16:35:10.844Z,4.68
2023-03-04T16:37:38.203Z,5.38
2023-03-04T16:40:06.216Z,5.07
2023-03-04T16:42:33.372Z,9.70
2023-03-04T16:45:00.176Z,7.28
2023-03-04T16:47:27.932Z,5.03
2023-03-04T16:49:54.807Z,7.70
2023-03-04T16:52:25.977Z,3.65
2023-03-04T16:54:53.142Z,5.82
2023-03-04T16:57:19.932Z,6.35
2023-03-04T16:59:47.295Z,7.10
2023-03-04T17:02:19.578Z,4.45
2023-03-04T17:04:48.477Z,5.90
2023-03-04T17:07:15.297Z,4.85
2023-03-04T17:09:42.529Z,5.85
2023-03-04T17:12:11.240Z,7.85
2023-03-04T17:14:39.171Z,5.63
2023-03-04T17:17:06.602Z,8.55
2023-03-04T17:19:33.354Z,9.82
2023-03-04T17:22:01.049Z,6.78
2023-03-04T17:24:27.733Z,4.85
2023-03-04T17:26:54.317Z,16.05
2023-03-04T17:29:21.091Z,11.05
2023-03-04T17:31:47.829Z,8.25
2023-03-04T17:34:14.802Z,4.05
2023-03-04T17:36:41.483Z,10.88
2023-03-04T17:39:08.332Z,4.03
2023-03-04T17:41:36.297Z,6.00
2023-03-04T17:44:03.411Z,8.25
2023-03-04T17:46:30.246Z,4.95
2023-03-04T17:48:59.465Z,9.65
2023-03-04T17:51:35.619Z,4.97
2023-03-04T17:54:05.766Z,6.18
2023-03-04T17:56:33.044Z,7.55
2023-03-04T17:59:01.459Z,5.32
2023-03-04T18:01:28.682Z,9.70
2023-03-04T18:03:55.852Z,5.20
2023-03-04T18:06:25.355Z,5.47
2023-03-04T18:08:53.018Z,6.97
2023-03-04T18:11:24.009Z,5.30
2023-03-04T18:13:50.699Z,7.72
2023-03-04T18:16:23.726Z,5.97
2023-03-04T18:18:51.297Z,4.93
2023-03-04T18:21:18.941Z,3.90
2023-03-04T18:23:45.865Z,5.22
2023-03-04T18:26:12.713Z,5.30
2023-03-04T18:28:39.436Z,4.18
2023-03-04T18:31:06.244Z,7.88
2023-03-04T18:33:33.422Z,5.65
2023-03-04T18:36:08.182Z,4.30
2023-03-04T18:38:34.958Z,5.05
2023-03-04T18:41:04.586Z,4.47
2023-03-04T18:43:31.409Z,5.38
2023-03-04T18:46:08.997Z,4.82
2023-03-04T18:48:39.524Z,5.00
2023-03-04T18:51:06.178Z,7.60
2023-03-04T18:53:32.767Z,6.43
2023-03-04T18:56:06.851Z,6.60
2023-03-04T18:58:36.116Z,6.10
2023-03-04T19:01:05.392Z,9.23
2023-03-04T19:03:34.442Z,6.32
2023-03-04T19:06:01.733Z,7.22
2023-03-04T19:08:28.653Z,7.05
2023-03-04T19:10:57.106Z,7.72
2023-03-04T19:13:24.087Z,5.38
2023-03-04T19:15:51.715Z,8.23
2023-03-04T19:18:18.693Z,6.15
2023-03-04T19:20:45.406Z,4.88
2023-03-04T19:23:14.283Z,7.72
2023-03-04T19:25:41.397Z,5.85
2023-03-04T19:28:08.627Z,4.88
2023-03-04T19:30:40.330Z,7.38
2023-03-04T19:33:07.491Z,7.82
2023-03-04T19:35:34.442Z,4.47
2023-03-04T19:38:01.341Z,5.75
2023-03-04T19:40:28.659Z,7.93
2023-03-04T19:42:56.863Z,7.53
2023-03-04T19:45:25.091Z,4.50
2023-03-04T19:47:52.280Z,8.48
2023-03-04T19:50:19.368Z,5.95
2023-03-04T19:52:46.161Z,4.93
2023-03-04T19:55:13.152Z,5.10
2023-03-04T19:57:42.038Z,7.68
2023-03-04T20:00:10.821Z,2.75
2023-03-04T20:02:37.633Z,7.50
2023-03-04T20:05:05.479Z,8.35
2023-03-04T20:07:32.193Z,4.35
2023-03-04T20:09:58.981Z,9.38
2023-03-04T20:12:25.717Z,6.28
2023-03-04T20:14:52.411Z,4.38
2023-03-04T20:17:19.377Z,4.88
2023-03-04T20:19:46.337Z,6.20
2023-03-04T20:22:13.596Z,3.78
2023-03-04T20:24:40.232Z,6.93
2023-03-04T20:27:06.951Z,4.88
2023-03-04T20:29:34.156Z,5.40
2023-03-04T20:32:01.721Z,4.57
2023-03-04T20:34:28.378Z,7.28
2023-03-04T20:36:55.066Z,6.20
2023-03-04T20:39:29.246Z,4.47
2023-03-04T20:41:58.252Z,8.68
2023-03-04T20:44:25.226Z,7.22
2023-03-04T20:46:52.342Z,6.20
2023-03-04T20:49:27.279Z,6.55
2023-03-04T20:51:56.524Z,3.88
2023-03-04T20:54:23.601Z,7.85
2023-03-04T20:56:50.615Z,6.40
2023-03-04T20:59:17.574Z,7.35
2023-03-04T21:01:45.819Z,9.80
2023-03-04T21:04:12.541Z,6.72
2023-03-04T21:06:39.772Z,9.90
2023-03-04T21:09:09.219Z,4.72
2023-03-04T21:11:42.514Z,5.75
2023-03-04T21:14:24.570Z,8.97
2023-03-04T21:16:53.627Z,8.50
2023-03-04T21:19:23.335Z,7.35
2023-03-04T21:21:51.833Z,7.10
2023-03-04T21:24:24.399Z,7.95
2023-03-04T21:26:51.450Z,8.65
2023-03-04T21:29:20.890Z,7.25
2023-03-04T21:31:53.832Z,7.32
2023-03-04T21:34:28.180Z,4.13
2023-03-04T21:36:54.803Z,7.85
2023-03-04T21:39:24.521Z,10.35
2023-03-04T21:41:52.024Z,8.63
2023-03-04T21:44:27.802Z,7.72
2023-03-04T21:46:56.820Z,7.65
2023-03-04T21:49:26.588Z,3.08
2023-03-04T21:51:59.686Z,6.28
2023-03-04T21:54:47.841Z,8.00
2023-03-04T21:57:34.581Z,6.13
2023-03-04T22:00:22.259Z,8.57
2023-03-04T22:02:56.317Z,6.93
2023-03-04T22:05:23.690Z,5.28
2023-03-04T22:07:58.845Z,5.68
2023-03-04T22:10:26.343Z,3.08
2023-03-04T22:12:53.663Z,5.72
2023-03-04T22:15:33.386Z,6.85
2023-03-04T22:18:20.283Z,4.85
2023-03-04T22:21:10.784Z,6.68
2023-03-04T22:23:57.500Z,4.90
2023-03-04T22:26:33.165Z,7.90
2023-03-04T22:29:04.643Z,6.55
2023-03-04T22:31:33.315Z,6.43
2023-03-04T22:34:02.366Z,4.53
2023-03-04T22:36:31.971Z,7.82
2023-03-04T22:38:58.738Z,7.18
2023-03-04T22:41:25.484Z,7.43
2023-03-04T22:43:52.287Z,6.07
2023-03-04T22:46:28.441Z,3.88
2023-03-04T22:49:00.483Z,5.38
2023-03-04T22:51:28.257Z,3.67
2023-03-04T22:53:55.922Z,6.60
2023-03-04T22:56:25.771Z,4.45
2023-03-04T22:58:53.424Z,4.90
2023-03-04T23:01:21.955Z,4.55
2023-03-04T23:03:49.360Z,3.60
2023-03-04T23:06:36.608Z,6.82
2023-03-04T23:09:04.536Z,6.18
2023-03-04T23:11:35.567Z,5.10
2023-03-04T23:14:06.620Z,5.15
2023-03-04T23:16:37.320Z,7.47
2023-03-04T23:19:05.325Z,5.80
2023-03-04T23:21:37.039Z,3.60
2023-03-04T23:24:05.482Z,7.93
2023-03-04T23:26:35.144Z,6.43
2023-03-04T23:29:04.027Z,6.20
2023-03-04T23:31:32.848Z,3.17
2023-03-04T23:34:00.081Z,5.03
2023-03-04T23:36:29.827Z,4.40
2023-03-04T23:38:57.137Z,5.97
2023-03-04T23:41:27.683Z,3.78
2023-03-04T23:43:56.926Z,6.85
2023-03-04T23:46:24.516Z,4.38
2023-03-04T23:48:52.520Z,4.78
2023-03-04T23:51:21.543Z,6.93
2023-03-04T23:53:48.592Z,9.65
2023-03-04T23:56:18.399Z,4.68
2023-03-04T23:58:46.063Z,7.68
